VYYY/RGN METAR and TAF weather

Enter ICAO airport designator
Station Type Date Time Source
VYYY METAR 2020/01/23 06:00 UTC NOAA

VYYY 230600Z 27005KT 7000 NSC 31/19 Q1013 NOSIG


Station Type Date Time Source
VYYY Decoded METAR 2020/01/23 06:00 UTC NOAA

Yangon, Myanmar (VYYY) 16-46N 096-10E 15M
Jan 23, 2020 - 01:00 AM EST / 2020.01.23 0600 UTC
Wind: from the W (270 degrees) at 6 MPH (5 KT):0
Visibility: 4 mile(s):0
Temperature: 87 F (31 C)
Dew Point: 66 F (19 C)
Relative Humidity: 48%
Pressure (altimeter): 29.91 in. Hg (1013 hPa)
ob: VYYY 230600Z 27005KT 7000 NSC 31/19 Q1013 NOSIG
cycle: 6

Station Type Date Time Source
VYYY TAF 2020/01/23 06:39 UTC NOAA

TAF TAF VYYY 230500Z 2306/2406 32005KT 8000 BKN250
TEMPO 2310/2314 6000 HZ
TEMPO 2314/2323 24008KT BKN220
TEMPO 2322/2402 3000 BR
TEMPO 2402/2406 6000 HZ

Example: see airport list